Time;durP1;ratioP1;P1;durP2;ratioP2;P2;SDS_P1;SDS_P2;PMS_P1;PMS_P2;Temp;Humidity;BMP_temperature;BMP_pressure;BME280_temperature;BME280_humidity;BME280_pressure;Samples;Min_cycle;Max_cycle;Signal;HPM_P1;HPM_P2
2022/04/25 00:01:26;;;;;;;0.73;0.43;;;;;;;;;;5015668;28;20046;-72
2022/04/25 00:04:08;;;;;;;0.20;0.20;;;;;;;;;;5015715;28;20511;-73
2022/04/25 00:06:34;;;;;;;0.43;0.43;;;;;;;;;;4998495;28;20076;-72
2022/04/25 00:09:01;;;;;;;1.65;0.50;;;;;;;;;;5015757;28;20168;-72
2022/04/25 00:11:27;;;;;;;4.25;1.50;;;;;;;;;;5015754;28;20115;-72
2022/04/25 00:13:53;;;;;;;0.10;0.10;;;;;;;;;;5015860;28;20042;-72
2022/04/25 00:16:19;;;;;;;0.10;0.10;;;;;;;;;;5015888;28;20500;-72
2022/04/25 00:18:48;;;;;;;0.20;0.20;;;;;;;;;;5015880;28;20121;-72
2022/04/25 00:21:14;;;;;;;0.20;0.20;;;;;;;;;;5015496;28;20045;-72
2022/04/25 00:23:41;;;;;;;0.20;0.20;;;;;;;;;;5015648;28;20042;-72
2022/04/25 00:26:07;;;;;;;0.10;0.10;;;;;;;;;;5015568;28;20088;-72
2022/04/25 00:28:33;;;;;;;0.30;0.28;;;;;;;;;;4998035;28;20377;-72
2022/04/25 00:30:59;;;;;;;0.10;0.10;;;;;;;;;;5015414;28;20052;-72
2022/04/25 00:33:26;;;;;;;0.10;0.10;;;;;;;;;;5015607;28;20041;-72
2022/04/25 00:35:52;;;;;;;0.20;0.20;;;;;;;;;;5015356;28;20105;-72
2022/04/25 00:38:19;;;;;;;0.40;0.40;;;;;;;;;;5015438;28;20551;-72
2022/04/25 00:40:45;;;;;;;0.15;0.15;;;;;;;;;;5015165;28;20045;-72
2022/04/25 00:43:11;;;;;;;0.20;0.20;;;;;;;;;;5015011;28;20046;-72
2022/04/25 00:45:37;;;;;;;1.00;1.00;;;;;;;;;;5015138;28;20489;-72
2022/04/25 00:48:04;;;;;;;0.30;0.30;;;;;;;;;;5015143;28;20050;-72
2022/04/25 00:50:30;;;;;;;0.25;0.25;;;;;;;;;;5015195;28;20046;-72
2022/04/25 00:52:56;;;;;;;0.10;0.10;;;;;;;;;;5015233;28;20099;-72
2022/04/25 00:55:22;;;;;;;0.63;0.47;;;;;;;;;;5015268;28;20046;-72
2022/04/25 00:57:49;;;;;;;0.47;0.47;;;;;;;;;;5014797;28;20065;-72
2022/04/25 01:00:15;;;;;;;0.30;0.30;;;;;;;;;;5014613;28;20042;-72
2022/04/25 01:02:41;;;;;;;0.17;0.17;;;;;;;;;;5014666;28;20053;-72
2022/04/25 01:05:08;;;;;;;0.10;0.10;;;;;;;;;;5014684;28;20037;-72
2022/04/25 01:07:35;;;;;;;0.20;0.20;;;;;;;;;;5014967;28;20044;-72
2022/04/25 01:10:01;;;;;;;0.57;0.50;;;;;;;;;;5014884;28;20480;-72
2022/04/25 01:12:28;;;;;;;0.22;0.20;;;;;;;;;;5014826;28;20149;-72
2022/04/25 01:14:58;;;;;;;0.17;0.17;;;;;;;;;;4997177;28;20046;-72
2022/04/25 01:17:24;;;;;;;1.20;0.37;;;;;;;;;;5014825;28;20125;-72
2022/04/25 01:19:50;;;;;;;0.20;0.20;;;;;;;;;;5014657;28;20042;-72
2022/04/25 01:22:17;;;;;;;0.30;0.30;;;;;;;;;;5014564;28;20049;-72
2022/04/25 01:27:28;;;;;;;0.32;0.32;;;;;;;;;;5014154;28;20408;-72
2022/04/25 01:29:55;;;;;;;0.10;0.10;;;;;;;;;;5014093;28;20042;-72
2022/04/25 01:32:22;;;;;;;0.13;0.13;;;;;;;;;;5014207;28;20374;-72
2022/04/25 01:34:49;;;;;;;0.52;0.52;;;;;;;;;;4997029;28;20243;-72
2022/04/25 01:37:15;;;;;;;0.20;0.20;;;;;;;;;;5014422;28;20046;-72
2022/04/25 01:39:48;;;;;;;0.10;0.10;;;;;;;;;;5014382;28;20072;-72
2022/04/25 01:42:15;;;;;;;0.40;0.40;;;;;;;;;;5014057;28;20049;-72
2022/04/25 01:44:42;;;;;;;0.77;0.77;;;;;;;;;;5014217;28;20088;-72
2022/04/25 01:47:08;;;;;;;0.10;0.10;;;;;;;;;;5014074;28;20493;-73
2022/04/25 01:49:34;;;;;;;0.47;0.47;;;;;;;;;;5013671;28;20100;-72
2022/04/25 01:52:21;;;;;;;0.35;0.35;;;;;;;;;;5013573;28;20504;-72
2022/04/25 01:54:48;;;;;;;0.52;0.52;;;;;;;;;;5013695;28;20038;-72
2022/04/25 01:57:14;;;;;;;0.82;0.82;;;;;;;;;;5013864;28;20053;-72
2022/04/25 01:59:40;;;;;;;0.28;0.28;;;;;;;;;;5013677;28;20069;-72
2022/04/25 02:02:06;;;;;;;0.10;0.10;;;;;;;;;;5013464;28;20137;-73
2022/04/25 02:04:32;;;;;;;1.48;0.22;;;;;;;;;;5013843;28;20038;-73
2022/04/25 02:06:59;;;;;;;0.10;0.10;;;;;;;;;;5013430;28;20044;-73
2022/04/25 02:09:25;;;;;;;0.20;0.20;;;;;;;;;;5013712;28;20072;-73
2022/04/25 02:11:51;;;;;;;0.13;0.13;;;;;;;;;;5013357;28;20050;-72
2022/04/25 02:14:17;;;;;;;0.20;0.20;;;;;;;;;;5013389;28;20042;-72
2022/04/25 02:16:44;;;;;;;0.20;0.20;;;;;;;;;;5013162;28;20038;-72
2022/04/25 02:19:11;;;;;;;0.20;0.20;;;;;;;;;;5013605;28;20045;-72
2022/04/25 02:21:37;;;;;;;0.30;0.30;;;;;;;;;;5013240;28;20045;-72
2022/04/25 02:24:03;;;;;;;0.60;0.60;;;;;;;;;;5013479;28;20049;-72
2022/04/25 02:26:30;;;;;;;0.10;0.10;;;;;;;;;;5013039;28;20407;-72
2022/04/25 02:28:56;;;;;;;0.40;0.40;;;;;;;;;;5013179;28;20041;-72
2022/04/25 02:31:24;;;;;;;0.13;0.13;;;;;;;;;;5013011;28;20037;-72
2022/04/25 02:33:51;;;;;;;2.88;0.47;;;;;;;;;;5013178;28;20049;-72
2022/04/25 02:36:17;;;;;;;0.10;0.10;;;;;;;;;;5014010;28;20037;-72
2022/04/25 02:38:44;;;;;;;0.25;0.25;;;;;;;;;;5017125;28;20119;-72
2022/04/25 02:41:10;;;;;;;0.30;0.30;;;;;;;;;;5017100;28;20120;-72
2022/04/25 02:43:37;;;;;;;0.20;0.20;;;;;;;;;;5017288;28;20046;-72
2022/04/25 02:46:04;;;;;;;0.20;0.20;;;;;;;;;;5016796;28;20049;-72
2022/04/25 02:48:31;;;;;;;0.30;0.30;;;;;;;;;;5017225;28;20046;-72
2022/04/25 02:50:57;;;;;;;0.40;0.40;;;;;;;;;;5016903;28;20551;-72
2022/04/25 02:53:24;;;;;;;0.40;0.40;;;;;;;;;;5017112;28;20042;-72
2022/04/25 02:55:52;;;;;;;0.30;0.30;;;;;;;;;;5016885;28;20077;-72
2022/04/25 02:58:18;;;;;;;0.20;0.20;;;;;;;;;;5016741;28;20045;-72
2022/04/25 03:00:47;;;;;;;0.20;0.20;;;;;;;;;;5016612;28;20049;-72
2022/04/25 03:03:14;;;;;;;0.45;0.45;;;;;;;;;;5016842;28;20057;-72
2022/04/25 03:05:44;;;;;;;0.10;0.10;;;;;;;;;;5017040;28;20046;-72
2022/04/25 03:08:14;;;;;;;0.20;0.20;;;;;;;;;;5016898;28;20037;-72
2022/04/25 03:10:42;;;;;;;0.55;0.55;;;;;;;;;;5016888;28;20117;-72
2022/04/25 03:13:09;;;;;;;0.28;0.28;;;;;;;;;;5016719;28;20048;-72
2022/04/25 03:15:38;;;;;;;0.80;0.70;;;;;;;;;;5016418;28;20052;-72
2022/04/25 03:18:04;;;;;;;0.10;0.10;;;;;;;;;;5016643;28;20041;-72
2022/04/25 03:20:31;;;;;;;0.20;0.20;;;;;;;;;;5016658;28;20052;-72
2022/04/25 03:22:58;;;;;;;0.30;0.30;;;;;;;;;;5016527;28;20042;-72
2022/04/25 03:25:24;;;;;;;0.95;0.63;;;;;;;;;;5016402;28;20052;-72
2022/04/25 03:27:51;;;;;;;2.28;1.00;;;;;;;;;;5016500;28;20048;-72
2022/04/25 03:30:17;;;;;;;0.45;0.45;;;;;;;;;;5016096;28;20120;-72
2022/04/25 03:32:48;;;;;;;0.25;0.25;;;;;;;;;;5016404;28;20045;-72
2022/04/25 03:35:14;;;;;;;0.20;0.20;;;;;;;;;;5016531;28;20046;-72
2022/04/25 03:37:41;;;;;;;0.20;0.20;;;;;;;;;;5016054;28;20048;-72
2022/04/25 03:40:09;;;;;;;0.85;0.30;;;;;;;;;;5016326;28;20171;-72
2022/04/25 03:42:40;;;;;;;2.67;1.30;;;;;;;;;;5016134;28;20100;-72
2022/04/25 03:45:09;;;;;;;0.47;0.47;;;;;;;;;;5015658;28;20512;-72
2022/04/25 03:47:35;;;;;;;0.13;0.13;;;;;;;;;;5015867;28;20496;-72
2022/04/25 03:50:01;;;;;;;0.38;0.38;;;;;;;;;;5016407;28;20199;-72
2022/04/25 03:52:28;;;;;;;0.15;0.15;;;;;;;;;;5016092;28;20669;-72
2022/04/25 03:57:40;;;;;;;0.13;0.13;;;;;;;;;;5015821;28;20125;-72
2022/04/25 04:00:07;;;;;;;0.50;0.50;;;;;;;;;;5016059;28;20472;-72
2022/04/25 04:02:33;;;;;;;0.10;0.10;;;;;;;;;;5016123;28;20133;-72
2022/04/25 04:05:01;;;;;;;0.60;0.60;;;;;;;;;;5016246;28;20053;-72
2022/04/25 04:07:27;;;;;;;0.22;0.22;;;;;;;;;;5015800;28;20045;-72
2022/04/25 04:09:53;;;;;;;0.30;0.30;;;;;;;;;;5015763;28;20072;-72
2022/04/25 04:12:20;;;;;;;0.10;0.10;;;;;;;;;;5015694;28;20049;-72
2022/04/25 04:14:46;;;;;;;0.13;0.13;;;;;;;;;;5015664;28;20053;-72
2022/04/25 04:17:14;;;;;;;0.13;0.13;;;;;;;;;;5015919;28;20044;-72
2022/04/25 04:19:41;;;;;;;0.40;0.40;;;;;;;;;;5015578;28;20052;-72
2022/04/25 04:22:08;;;;;;;0.25;0.25;;;;;;;;;;5015611;28;20042;-72
2022/04/25 04:24:37;;;;;;;0.25;0.25;;;;;;;;;;4997968;28;20050;-72
2022/04/25 04:27:03;;;;;;;1.08;0.40;;;;;;;;;;5015419;28;20084;-72
2022/04/25 04:29:30;;;;;;;0.38;0.38;;;;;;;;;;5015374;28;20052;-72
2022/04/25 04:31:57;;;;;;;0.20;0.20;;;;;;;;;;5015141;28;20073;-72
2022/04/25 04:34:24;;;;;;;0.17;0.17;;;;;;;;;;5015024;28;20029;-72
2022/04/25 04:36:53;;;;;;;0.10;0.10;;;;;;;;;;5015133;28;20073;-72
2022/04/25 04:39:19;;;;;;;0.10;0.10;;;;;;;;;;5014861;28;20532;-72
2022/04/25 04:41:45;;;;;;;0.30;0.30;;;;;;;;;;5014872;28;20050;-72
2022/04/25 04:44:12;;;;;;;0.15;0.15;;;;;;;;;;5015067;28;20045;-72
2022/04/25 04:46:38;;;;;;;0.05;0.05;;;;;;;;;;5014596;28;20061;-72
2022/04/25 04:49:04;;;;;;;0.10;0.10;;;;;;;;;;5014641;28;20430;-72
2022/04/25 04:51:30;;;;;;;0.20;0.20;;;;;;;;;;5014716;28;20478;-72
2022/04/25 04:53:59;;;;;;;0.30;0.30;;;;;;;;;;5014922;28;20128;-72
2022/04/25 04:56:26;;;;;;;0.10;0.10;;;;;;;;;;5014921;28;20120;-72
2022/04/25 04:58:53;;;;;;;0.10;0.10;;;;;;;;;;5014029;28;20041;-72
2022/04/25 05:01:19;;;;;;;2.25;1.13;;;;;;;;;;5014358;28;20607;-72
2022/04/25 05:03:46;;;;;;;0.25;0.13;;;;;;;;;;5014570;28;20132;-72
2022/04/25 05:06:12;;;;;;;0.10;0.10;;;;;;;;;;5014812;28;20046;-72
2022/04/25 05:08:38;;;;;;;0.10;0.10;;;;;;;;;;5014386;28;20041;-72
2022/04/25 05:11:06;;;;;;;0.22;0.22;;;;;;;;;;5014330;28;20072;-72
2022/04/25 05:13:33;;;;;;;18.63;0.57;;;;;;;;;;5014579;28;20443;-72
2022/04/25 05:16:00;;;;;;;0.10;0.10;;;;;;;;;;5014026;28;20041;-72
2022/04/25 05:18:26;;;;;;;0.30;0.30;;;;;;;;;;5014454;28;20034;-72
2022/04/25 05:20:53;;;;;;;0.00;0.00;;;;;;;;;;5014084;28;20033;-72
2022/04/25 05:23:19;;;;;;;0.10;0.10;;;;;;;;;;5014314;28;20089;-72
2022/04/25 05:25:45;;;;;;;0.45;0.40;;;;;;;;;;5014246;28;20038;-72
2022/04/25 05:28:11;;;;;;;0.22;0.22;;;;;;;;;;5014314;28;20046;-72
2022/04/25 05:30:37;;;;;;;0.10;0.10;;;;;;;;;;5014124;28;20095;-72
2022/04/25 05:33:04;;;;;;;0.20;0.20;;;;;;;;;;5014099;28;20072;-72
2022/04/25 05:35:31;;;;;;;0.25;0.25;;;;;;;;;;5014017;28;20046;-72
2022/04/25 05:37:58;;;;;;;0.20;0.20;;;;;;;;;;5012752;28;20045;-72
2022/04/25 05:40:27;;;;;;;0.50;0.50;;;;;;;;;;5012549;28;20046;-72
2022/04/25 05:42:56;;;;;;;0.38;0.38;;;;;;;;;;5013679;28;20111;-72
2022/04/25 05:45:23;;;;;;;0.10;0.10;;;;;;;;;;5013864;28;20054;-72
2022/04/25 05:47:50;;;;;;;0.10;0.10;;;;;;;;;;5013820;28;20056;-72
2022/04/25 05:53:03;;;;;;;0.20;0.20;;;;;;;;;;5013075;28;20141;-72
2022/04/25 05:55:30;;;;;;;1.38;0.68;;;;;;;;;;5014097;28;20054;-72
2022/04/25 05:57:57;;;;;;;0.17;0.17;;;;;;;;;;5013171;28;20042;-73
2022/04/25 06:00:24;;;;;;;0.22;0.22;;;;;;;;;;5020030;28;20396;-73
2022/04/25 06:02:50;;;;;;;0.22;0.22;;;;;;;;;;5033377;28;20211;-73
2022/04/25 06:05:16;;;;;;;0.25;0.25;;;;;;;;;;5031983;28;20052;-73
2022/04/25 06:07:44;;;;;;;0.38;0.38;;;;;;;;;;4994144;28;20096;-73
2022/04/25 06:10:14;;;;;;;0.40;0.40;;;;;;;;;;4993868;28;20584;-73
2022/04/25 06:12:44;;;;;;;0.45;0.45;;;;;;;;;;4994277;28;20038;-73
2022/04/25 06:15:10;;;;;;;0.30;0.30;;;;;;;;;;4994294;28;20516;-73
2022/04/25 06:17:37;;;;;;;0.50;0.50;;;;;;;;;;5013320;28;20532;-74
2022/04/25 06:20:06;;;;;;;1.27;0.63;;;;;;;;;;5012715;28;20049;-74
2022/04/25 06:22:33;;;;;;;0.30;0.30;;;;;;;;;;5013187;28;20049;-74
2022/04/25 06:24:59;;;;;;;0.30;0.30;;;;;;;;;;5013726;28;20046;-72
2022/04/25 06:27:25;;;;;;;0.40;0.40;;;;;;;;;;5013977;28;20045;-71
2022/04/25 06:29:52;;;;;;;0.28;0.28;;;;;;;;;;5013336;28;20500;-72
2022/04/25 06:32:19;;;;;;;0.43;0.43;;;;;;;;;;4996199;28;20491;-72
2022/04/25 06:34:45;;;;;;;0.50;0.50;;;;;;;;;;5013797;28;20041;-72
2022/04/25 06:37:11;;;;;;;0.10;0.10;;;;;;;;;;5013476;28;20038;-72
2022/04/25 06:39:37;;;;;;;0.25;0.25;;;;;;;;;;5013386;28;20168;-72
2022/04/25 06:42:08;;;;;;;0.47;0.25;;;;;;;;;;5013563;28;20042;-72
2022/04/25 06:44:34;;;;;;;1.90;1.80;;;;;;;;;;5013415;28;20060;-72
2022/04/25 06:47:00;;;;;;;0.30;0.30;;;;;;;;;;5012872;28;20046;-72
2022/04/25 06:49:27;;;;;;;0.40;0.40;;;;;;;;;;5013319;28;20038;-72
2022/04/25 06:51:58;;;;;;;0.43;0.43;;;;;;;;;;5013213;28;20091;-71
2022/04/25 06:54:25;;;;;;;0.20;0.20;;;;;;;;;;5013196;28;20033;-71
2022/04/25 06:56:51;;;;;;;0.52;0.52;;;;;;;;;;5013005;28;20408;-72
2022/04/25 06:59:19;;;;;;;0.30;0.30;;;;;;;;;;5013204;28;20049;-72
2022/04/25 07:01:45;;;;;;;0.10;0.10;;;;;;;;;;5012941;28;20042;-72
2022/04/25 07:04:15;;;;;;;0.30;0.30;;;;;;;;;;5012824;28;20076;-72
2022/04/25 07:06:41;;;;;;;0.20;0.20;;;;;;;;;;5012784;28;20042;-72
2022/04/25 07:09:07;;;;;;;0.40;0.40;;;;;;;;;;5013142;28;20042;-72
2022/04/25 07:11:34;;;;;;;0.25;0.25;;;;;;;;;;5013034;28;20532;-72
2022/04/25 07:14:04;;;;;;;0.20;0.20;;;;;;;;;;5012712;28;20048;-72
2022/04/25 07:16:30;;;;;;;0.73;0.50;;;;;;;;;;5012705;28;20053;-72
2022/04/25 07:18:57;;;;;;;0.50;0.50;;;;;;;;;;5012768;28;20588;-72
2022/04/25 07:29:37;;;;;;;0.80;0.80;;;;;;;;;;5015928;28;20084;-72
2022/04/25 07:32:04;;;;;;;1.40;1.08;;;;;;;;;;5016290;28;20041;-71
2022/04/25 07:34:30;;;;;;;0.20;0.20;;;;;;;;;;5016178;28;20509;-71
2022/04/25 07:36:56;;;;;;;1.23;0.25;;;;;;;;;;5016414;28;20088;-71
2022/04/25 07:39:23;;;;;;;0.13;0.13;;;;;;;;;;5016338;28;20050;-72
2022/04/25 07:41:50;;;;;;;0.10;0.10;;;;;;;;;;5016011;28;20038;-72
2022/04/25 07:44:16;;;;;;;1.02;0.63;;;;;;;;;;5016161;28;20115;-72
2022/04/25 07:46:42;;;;;;;0.80;0.80;;;;;;;;;;5015823;28;20508;-72
2022/04/25 07:49:13;;;;;;;0.30;0.30;;;;;;;;;;5016400;28;20068;-72
2022/04/25 07:51:42;;;;;;;0.10;0.10;;;;;;;;;;5016345;28;20074;-72
2022/04/25 07:54:09;;;;;;;0.20;0.20;;;;;;;;;;5016359;28;20054;-72
2022/04/25 07:56:42;;;;;;;0.20;0.20;;;;;;;;;;5016165;28;20034;-71
2022/04/25 07:59:09;;;;;;;0.50;0.50;;;;;;;;;;5015945;28;20041;-72
2022/04/25 08:01:35;;;;;;;0.38;0.38;;;;;;;;;;5015979;28;20104;-71
2022/04/25 08:04:02;;;;;;;0.47;0.35;;;;;;;;;;5015833;28;20099;-72
2022/04/25 08:06:28;;;;;;;0.30;0.30;;;;;;;;;;5016285;28;20045;-72
2022/04/25 08:08:54;;;;;;;0.30;0.30;;;;;;;;;;5016063;28;20129;-72
2022/04/25 08:11:21;;;;;;;0.30;0.30;;;;;;;;;;5015988;28;20049;-72
2022/04/25 08:19:17;;;;;;;0.60;0.60;;;;;;;;;;5015931;28;20034;-72
2022/04/25 08:21:44;;;;;;;0.20;0.20;;;;;;;;;;5015776;28;20084;-72
2022/04/25 08:24:11;;;;;;;0.40;0.40;;;;;;;;;;5015704;28;20056;-72
2022/04/25 08:26:38;;;;;;;1.30;0.68;;;;;;;;;;5015628;28;20050;-72
2022/04/25 08:29:04;;;;;;;0.30;0.30;;;;;;;;;;5015429;28;20120;-72
2022/04/25 08:31:34;;;;;;;0.35;0.35;;;;;;;;;;5015493;28;20117;-72
2022/04/25 08:34:02;;;;;;;0.32;0.32;;;;;;;;;;5014491;28;20042;-72
2022/04/25 08:36:29;;;;;;;0.30;0.30;;;;;;;;;;5013916;28;20048;-72
2022/04/25 08:38:55;;;;;;;0.30;0.30;;;;;;;;;;5014741;28;20050;-72
2022/04/25 08:41:24;;;;;;;0.20;0.20;;;;;;;;;;5016443;28;20057;-72
2022/04/25 08:43:51;;;;;;;0.15;0.15;;;;;;;;;;5034969;28;20045;-72
2022/04/25 08:46:17;;;;;;;0.68;0.65;;;;;;;;;;5034861;28;20045;-72
2022/04/25 08:48:44;;;;;;;0.32;0.32;;;;;;;;;;5034780;28;20042;-72
2022/04/25 08:51:11;;;;;;;0.10;0.10;;;;;;;;;;5034599;28;20122;-72
2022/04/25 08:53:39;;;;;;;0.20;0.20;;;;;;;;;;5034437;28;20159;-72
2022/04/25 08:56:09;;;;;;;0.85;0.85;;;;;;;;;;5034055;28;20043;-72
2022/04/25 08:58:38;;;;;;;0.27;0.27;;;;;;;;;;5034163;28;20045;-72
2022/04/25 09:01:04;;;;;;;0.55;0.55;;;;;;;;;;5034332;28;20034;-72
2022/04/25 09:03:30;;;;;;;0.75;0.75;;;;;;;;;;5034456;28;20053;-72
2022/04/25 09:05:58;;;;;;;0.32;0.32;;;;;;;;;;5034570;28;20567;-72
2022/04/25 09:08:24;;;;;;;0.20;0.20;;;;;;;;;;5034166;28;20077;-73
2022/04/25 09:10:51;;;;;;;0.95;0.90;;;;;;;;;;5034090;28;20042;-72
2022/04/25 09:13:17;;;;;;;0.32;0.32;;;;;;;;;;5034310;28;20045;-72
2022/04/25 09:15:43;;;;;;;0.57;0.57;;;;;;;;;;5034247;28;20072;-72
2022/04/25 09:18:10;;;;;;;0.10;0.10;;;;;;;;;;5034058;28;20077;-73
2022/04/25 09:20:37;;;;;;;0.73;0.60;;;;;;;;;;5034232;28;20037;-72
2022/04/25 09:23:19;;;;;;;0.13;0.13;;;;;;;;;;5034165;28;20076;-72
2022/04/25 09:26:05;;;;;;;0.40;0.40;;;;;;;;;;5033877;28;20041;-72
2022/04/25 09:28:34;;;;;;;0.47;0.47;;;;;;;;;;5033830;28;20098;-73
2022/04/25 09:31:01;;;;;;;0.47;0.47;;;;;;;;;;5033729;28;20069;-72
2022/04/25 09:33:27;;;;;;;0.30;0.30;;;;;;;;;;5033941;28;20127;-73
2022/04/25 09:35:54;;;;;;;0.20;0.20;;;;;;;;;;5034072;28;20053;-72
2022/04/25 09:38:31;;;;;;;0.63;0.50;;;;;;;;;;5033586;28;20042;-73
2022/04/25 09:40:57;;;;;;;0.30;0.30;;;;;;;;;;5033566;28;20504;-72
2022/04/25 09:43:29;;;;;;;0.50;0.50;;;;;;;;;;5033480;28;20057;-73
2022/04/25 09:46:06;;;;;;;0.30;0.30;;;;;;;;;;5032796;28;20049;-73
2022/04/25 09:48:33;;;;;;;0.32;0.32;;;;;;;;;;5033692;28;20053;-73
2022/04/25 09:51:03;;;;;;;0.22;0.22;;;;;;;;;;5033416;28;20566;-72
2022/04/25 09:53:52;;;;;;;0.40;0.40;;;;;;;;;;5033347;28;20041;-73
2022/04/25 09:56:19;;;;;;;0.30;0.30;;;;;;;;;;5033359;28;20041;-73
2022/04/25 09:58:59;;;;;;;0.20;0.20;;;;;;;;;;5033562;28;20091;-73
2022/04/25 10:01:26;;;;;;;0.30;0.30;;;;;;;;;;5033014;28;20029;-73
2022/04/25 10:03:52;;;;;;;0.32;0.32;;;;;;;;;;5033268;28;20106;-73
2022/04/25 10:06:20;;;;;;;0.38;0.38;;;;;;;;;;5033320;28;20451;-73
2022/04/25 10:08:47;;;;;;;0.10;0.10;;;;;;;;;;5033121;28;20057;-72
2022/04/25 10:11:13;;;;;;;0.47;0.47;;;;;;;;;;5033202;28;20041;-72
2022/04/25 10:13:40;;;;;;;1.00;0.30;;;;;;;;;;5033310;28;20048;-73
2022/04/25 10:16:06;;;;;;;0.55;0.55;;;;;;;;;;5032987;28;20037;-73
2022/04/25 10:18:32;;;;;;;0.17;0.17;;;;;;;;;;5033284;28;20168;-72
2022/04/25 10:20:59;;;;;;;3.08;0.35;;;;;;;;;;5032883;28;20128;-73
2022/04/25 10:23:25;;;;;;;0.22;0.22;;;;;;;;;;5033061;28;20064;-72
2022/04/25 10:25:54;;;;;;;1.10;1.10;;;;;;;;;;5033303;28;20045;-72
2022/04/25 10:28:28;;;;;;;0.28;0.28;;;;;;;;;;5032915;28;20045;-73
2022/04/25 10:30:58;;;;;;;0.60;0.60;;;;;;;;;;5032633;28;20052;-73
2022/04/25 10:33:24;;;;;;;0.87;0.87;;;;;;;;;;5033516;28;20080;-73
2022/04/25 10:35:51;;;;;;;0.40;0.40;;;;;;;;;;5033077;28;20037;-72
2022/04/25 10:38:49;;;;;;;0.20;0.20;;;;;;;;;;5032913;28;20050;-73
2022/04/25 10:44:33;;;;;;;1.55;0.40;;;;;;;;;;5032584;28;20163;-72
2022/04/25 10:47:05;;;;;;;1.85;1.35;;;;;;;;;;5032822;28;20064;-72
2022/04/25 10:49:34;;;;;;;0.20;0.20;;;;;;;;;;5033315;28;20045;-72
2022/04/25 10:52:01;;;;;;;0.60;0.57;;;;;;;;;;5033231;28;20037;-72
2022/04/25 10:54:28;;;;;;;0.20;0.20;;;;;;;;;;5033025;28;20046;-72
2022/04/25 10:57:11;;;;;;;0.20;0.20;;;;;;;;;;5033254;28;20037;-72
2022/04/25 10:59:40;;;;;;;0.47;0.47;;;;;;;;;;5036885;28;20038;-73
2022/04/25 11:02:26;;;;;;;0.30;0.30;;;;;;;;;;5036813;28;20124;-73
2022/04/25 11:05:10;;;;;;;0.57;0.57;;;;;;;;;;5037165;28;20052;-73
2022/04/25 11:07:40;;;;;;;0.50;0.50;;;;;;;;;;5037030;28;20041;-73
2022/04/25 11:10:07;;;;;;;0.65;0.65;;;;;;;;;;5036651;28;20045;-73
2022/04/25 11:12:52;;;;;;;0.55;0.55;;;;;;;;;;5036841;28;20080;-73
2022/04/25 11:15:38;;;;;;;0.43;0.43;;;;;;;;;;5036796;28;20041;-72
2022/04/25 11:18:27;;;;;;;0.28;0.28;;;;;;;;;;5036382;28;20042;-73
2022/04/25 11:20:56;;;;;;;0.57;0.57;;;;;;;;;;5036135;28;20120;-73
2022/04/25 11:23:28;;;;;;;0.50;0.50;;;;;;;;;;5036537;28;20120;-72
2022/04/25 11:26:01;;;;;;;1.10;1.00;;;;;;;;;;5036437;28;20037;-73
2022/04/25 11:28:28;;;;;;;0.30;0.30;;;;;;;;;;5036621;28;20041;-72
2022/04/25 11:31:13;;;;;;;0.45;0.40;;;;;;;;;;5032966;28;20053;-71
2022/04/25 11:33:42;;;;;;;0.20;0.20;;;;;;;;;;5013524;28;20045;-73
2022/04/25 11:36:11;;;;;;;0.20;0.20;;;;;;;;;;5016240;28;20073;-74
2022/04/25 11:41:27;;;;;;;0.30;0.30;;;;;;;;;;5015167;28;20033;-73
2022/04/25 11:43:53;;;;;;;0.20;0.20;;;;;;;;;;5014781;28;20088;-72
2022/04/25 11:46:19;;;;;;;0.25;0.25;;;;;;;;;;5016100;28;20128;-73
2022/04/25 11:48:52;;;;;;;0.40;0.40;;;;;;;;;;5014814;28;20056;-73
2022/04/25 11:51:29;;;;;;;0.75;0.70;;;;;;;;;;5015259;28;20046;-73
2022/04/25 11:53:59;;;;;;;0.20;0.20;;;;;;;;;;5014674;28;20042;-73
2022/04/25 11:56:28;;;;;;;0.40;0.40;;;;;;;;;;5015575;28;20049;-73
2022/04/25 11:58:55;;;;;;;0.47;0.45;;;;;;;;;;5015248;28;20115;-73
2022/04/25 12:01:33;;;;;;;0.10;0.10;;;;;;;;;;5013623;28;20547;-73
2022/04/25 12:04:19;;;;;;;0.20;0.20;;;;;;;;;;5014996;28;20042;-73
2022/04/25 12:07:01;;;;;;;0.20;0.20;;;;;;;;;;5015942;28;20128;-72
2022/04/25 12:17:49;;;;;;;0.30;0.30;;;;;;;;;;5014608;28;20037;-70
2022/04/25 12:20:16;;;;;;;0.40;0.40;;;;;;;;;;5015060;28;20564;-72
2022/04/25 12:22:53;;;;;;;0.10;0.10;;;;;;;;;;5015371;28;20068;-72
2022/04/25 12:25:21;;;;;;;0.20;0.20;;;;;;;;;;5015533;28;20052;-72
2022/04/25 12:28:07;;;;;;;1.85;0.68;;;;;;;;;;5015193;28;20034;-72
2022/04/25 12:30:52;;;;;;;0.10;0.10;;;;;;;;;;5023453;28;20049;-72
2022/04/25 12:33:19;;;;;;;0.40;0.40;;;;;;;;;;5032167;28;20045;-72
2022/04/25 12:35:46;;;;;;;0.25;0.25;;;;;;;;;;5014522;28;20069;-72
2022/04/25 12:38:32;;;;;;;0.85;0.85;;;;;;;;;;5013868;28;20081;-73
2022/04/25 12:40:58;;;;;;;0.10;0.10;;;;;;;;;;5014192;28;20089;-73
2022/04/25 12:43:37;;;;;;;0.20;0.20;;;;;;;;;;5014323;28;20140;-73
2022/04/25 12:46:03;;;;;;;0.28;0.28;;;;;;;;;;5014534;28;20049;-73
2022/04/25 12:48:29;;;;;;;0.63;0.63;;;;;;;;;;5004189;28;20041;-73
2022/04/25 12:50:56;;;;;;;0.10;0.10;;;;;;;;;;5010701;28;20042;-73
2022/04/25 12:53:42;;;;;;;0.38;0.38;;;;;;;;;;5009978;28;20099;-72
2022/04/25 12:56:09;;;;;;;0.32;0.32;;;;;;;;;;5005970;28;20045;-73
2022/04/25 12:58:35;;;;;;;0.77;0.50;;;;;;;;;;4994874;28;20061;-72
2022/04/25 13:01:04;;;;;;;0.20;0.20;;;;;;;;;;4994076;28;20412;-71
2022/04/25 13:03:31;;;;;;;0.20;0.20;;;;;;;;;;5013566;28;20558;-71
2022/04/25 13:05:57;;;;;;;0.38;0.30;;;;;;;;;;5014691;28;20049;-73
2022/04/25 13:08:23;;;;;;;0.10;0.10;;;;;;;;;;5013505;28;20041;-71
2022/04/25 13:10:49;;;;;;;0.28;0.28;;;;;;;;;;5014445;28;20042;-73
2022/04/25 13:13:15;;;;;;;2.55;1.65;;;;;;;;;;5014305;28;20139;-71
2022/04/25 13:15:44;;;;;;;0.17;0.17;;;;;;;;;;5015191;28;20052;-72
2022/04/25 13:18:10;;;;;;;0.50;0.50;;;;;;;;;;5015128;28;20037;-72
2022/04/25 13:20:36;;;;;;;0.20;0.20;;;;;;;;;;5015099;28;20554;-72
2022/04/25 13:23:03;;;;;;;0.13;0.13;;;;;;;;;;5014867;28;20045;-72
2022/04/25 13:25:29;;;;;;;2.05;1.08;;;;;;;;;;5015258;28;20038;-72
2022/04/25 13:27:55;;;;;;;0.55;0.55;;;;;;;;;;5015192;28;20042;-72
2022/04/25 13:30:22;;;;;;;0.75;0.43;;;;;;;;;;5014968;28;20034;-72
2022/04/25 13:32:50;;;;;;;0.30;0.30;;;;;;;;;;5014660;28;20125;-72
2022/04/25 13:35:17;;;;;;;0.20;0.20;;;;;;;;;;5013393;28;20042;-72
2022/04/25 13:37:43;;;;;;;0.28;0.28;;;;;;;;;;5013811;28;20038;-72
2022/04/25 13:40:10;;;;;;;0.32;0.32;;;;;;;;;;5013849;28;20057;-72
2022/04/25 13:42:37;;;;;;;0.10;0.10;;;;;;;;;;5014436;28;20038;-72
2022/04/25 13:45:03;;;;;;;0.20;0.20;;;;;;;;;;5013095;28;20041;-72
2022/04/25 13:47:30;;;;;;;0.30;0.30;;;;;;;;;;5015260;28;20160;-71
2022/04/25 13:49:56;;;;;;;0.15;0.15;;;;;;;;;;5015146;28;20069;-72
2022/04/25 13:52:23;;;;;;;1.13;0.45;;;;;;;;;;5016015;28;20087;-72
2022/04/25 13:54:49;;;;;;;5.13;1.55;;;;;;;;;;5014810;28;20560;-72
2022/04/25 13:57:16;;;;;;;0.10;0.10;;;;;;;;;;5014718;28;20037;-71
2022/04/25 13:59:43;;;;;;;1.00;0.55;;;;;;;;;;5014053;28;20503;-71
2022/04/25 14:04:54;;;;;;;0.10;0.10;;;;;;;;;;5014716;28;20582;-71
2022/04/25 14:07:20;;;;;;;0.20;0.20;;;;;;;;;;5014355;28;20045;-71
2022/04/25 14:09:46;;;;;;;0.20;0.20;;;;;;;;;;5014262;28;20116;-71
2022/04/25 14:12:13;;;;;;;0.20;0.20;;;;;;;;;;5014857;28;20551;-71
2022/04/25 14:14:39;;;;;;;0.10;0.10;;;;;;;;;;5025138;28;20044;-71
2022/04/25 14:17:05;;;;;;;0.20;0.20;;;;;;;;;;5034507;28;20040;-70
2022/04/25 14:19:32;;;;;;;0.28;0.28;;;;;;;;;;5023532;28;20125;-72
2022/04/25 14:21:58;;;;;;;0.10;0.10;;;;;;;;;;5014469;28;20069;-72
2022/04/25 14:24:25;;;;;;;0.22;0.22;;;;;;;;;;5014858;28;20042;-71
2022/04/25 14:26:52;;;;;;;0.20;0.20;;;;;;;;;;5013817;28;20058;-71
2022/04/25 14:29:18;;;;;;;0.20;0.20;;;;;;;;;;5012167;28;20038;-71
2022/04/25 14:31:44;;;;;;;0.40;0.40;;;;;;;;;;5001798;28;20053;-71
2022/04/25 14:34:10;;;;;;;0.35;0.35;;;;;;;;;;5026056;28;20079;-71
2022/04/25 14:36:37;;;;;;;0.47;0.47;;;;;;;;;;5017372;28;20080;-70
2022/04/25 14:39:03;;;;;;;0.25;0.25;;;;;;;;;;5016993;28;20531;-71
2022/04/25 14:41:29;;;;;;;0.63;0.63;;;;;;;;;;5017770;28;20121;-70
2022/04/25 14:43:57;;;;;;;1.30;0.35;;;;;;;;;;5017294;28;20501;-70
2022/04/25 14:46:24;;;;;;;0.80;0.43;;;;;;;;;;5015657;28;20081;-70
2022/04/25 14:48:50;;;;;;;0.55;0.55;;;;;;;;;;5017138;28;20050;-72
2022/04/25 14:56:45;;;;;;;0.15;0.15;;;;;;;;;;5018139;28;20100;-70
2022/04/25 14:59:11;;;;;;;0.63;0.60;;;;;;;;;;5018334;28;20374;-70
2022/04/25 15:01:37;;;;;;;0.43;0.35;;;;;;;;;;5000776;28;20084;-70
2022/04/25 15:04:03;;;;;;;0.10;0.10;;;;;;;;;;5019007;28;20054;-70
2022/04/25 15:06:30;;;;;;;0.20;0.20;;;;;;;;;;5017945;28;20420;-70
2022/04/25 15:08:56;;;;;;;0.10;0.10;;;;;;;;;;5018145;28;20133;-70
2022/04/25 15:11:22;;;;;;;0.40;0.40;;;;;;;;;;5018013;28;20091;-70
2022/04/25 15:13:48;;;;;;;0.10;0.10;;;;;;;;;;5017806;28;20050;-70
2022/04/25 15:16:15;;;;;;;0.10;0.10;;;;;;;;;;5018091;28;20038;-70
2022/04/25 15:18:41;;;;;;;0.10;0.10;;;;;;;;;;5017605;28;20038;-70
2022/04/25 15:21:11;;;;;;;0.30;0.30;;;;;;;;;;5000243;28;20171;-70
2022/04/25 15:23:39;;;;;;;0.10;0.10;;;;;;;;;;5016996;28;20477;-70
2022/04/25 15:26:05;;;;;;;0.32;0.32;;;;;;;;;;5015716;28;20041;-70
2022/04/25 15:28:31;;;;;;;0.20;0.20;;;;;;;;;;5017841;28;20041;-70
2022/04/25 15:30:57;;;;;;;0.40;0.40;;;;;;;;;;5017275;28;20030;-70
2022/04/25 15:33:24;;;;;;;0.10;0.10;;;;;;;;;;5017653;28;20084;-70